CW4198 Weather Reports


time (UTC)temp
C
wind
direction
speed
KPH
gust
KPH
rain 1hr
cm
rain 24hr
cm
rain mn
cm
humidity
%
barometer
mb
20181216160541 12 258 0.0 4.8 0.00 0.91 0.89 54 1021.8
20181216155540 12 280 14.5 14.5 0.00 0.91 0.89 54 1021.8
20181216154541 12 283 0.0 0.0 0.00 0.91 0.89 55 1021.8
20181216152540 12 278 0.0 8.0 0.00 0.91 0.89 59 1021.8
20181216150541 12 290 8.0 12.9 0.00 0.91 0.89 60 1021.8
20181216145540 12 261 8.0 12.9 0.00 0.91 0.89 58 1021.8
20181216143540 14 317 11.3 14.5 0.00 0.91 0.89 41 1020.8
20181216142540 15 260 12.9 19.3 0.00 0.91 0.89 42 1020.8
20181216140540 15 277 11.3 14.5 0.00 0.91 0.89 44 1020.8
20181216135540 15 257 11.3 17.7 0.00 0.91 0.89 45 1020.8
20181216134540 15 263 3.2 14.5 0.00 0.91 0.89 46 1020.8
20181216132540 15 215 8.0 20.9 0.00 0.91 0.89 47 1020.8
20181216124540 14 257 12.9 17.7 0.00 0.91 0.89 53 1020.8
20181216123540 14 280 11.3 11.3 0.00 0.91 0.89 54 1020.8
20181216120540 15 213 17.7 17.7 0.00 0.91 0.89 72 1020.8
20181216112608 14 278 8.0 17.7 0.00 0.91 0.89 92 1021.8
20181216104608 13 246 11.3 17.7 0.00 0.91 0.89 96 1020.8
20181216103608 13 260 16.1 16.1 0.00 0.91 0.89 96 1020.8
20181216102608 13 284 11.3 17.7 0.00 0.91 0.89 96 1020.8
20181216101609 13 243 8.0 11.3 0.00 0.91 0.89 97 1020.8
20181216095607 13 225 12.9 17.7 0.00 0.91 0.89 97 1020.8
20181216094607 12 238 11.3 11.3 0.00 0.91 0.89 97 1019.8
20181216093607 12 235 11.3 14.5 0.00 0.91 0.89 97 1019.8
20181216084607 11 223 0.0 8.0 0.00 0.91 0.89 97 1019.8
20181216083607 12 194 8.0 8.0 0.00 0.91 0.89 97 1019.8
20181216082607 12 211 8.0 8.0 0.00 0.91 0.89 97 1018.8
20181216081607 12 218 4.8 8.0 0.00 0.91 0.89 97 1018.8
20181216080607 12 225 8.0 8.0 0.00 0.91 0.89 97 1018.8
20181216075607 12 224 0.0 4.8 0.00 0.91 0.89 97 1018.8
20181216074607 12 219 4.8 8.0 0.05 0.91 0.89 97 1018.8
20181216073607 12 250 3.2 6.4 0.05 0.91 0.89 97 1018.8
20181216072608 12 258 4.8 8.0 0.08 0.91 0.89 97 1017.8
20181216065607 12 227 4.8 11.3 0.53 0.91 0.89 97 1017.8
20181216063550 12 225 0.0 11.3 0.58 0.89 0.84 97 1017.8
20181216062550 12 253 8.0 11.3 0.64 0.89 0.84 97 1017.8
20181216061550 12 219 4.8 8.0 0.58 0.76 0.76 97 1016.8
20181216054550 12 218 17.7 29.0 0.13 0.33 0.30 97 1016.8
20181216052550 12 195 20.9 30.6 0.05 0.25 0.20 97 1016.8
20181216051550 12 202 20.9 27.4 0.08 0.20 0.18 97 1016.8
20181216044542 12 201 19.3 20.9 0.08 0.20 0.18 97 1016.8
20181216043542 11 137 12.9 22.5 0.08 0.20 0.18 97 1016.8
20181216041542 11 177 16.1 20.9 0.00 0.13 0.08 97 1017.8
20181216040542 11 185 16.1 22.5 0.00 0.13 0.08 97 1017.8
20181216033542 11 198 16.1 27.4 0.05 0.13 0.08 97 1018.8
20181216031542 11 183 14.5 27.4 0.05 0.13 0.08 96 1018.8
20181216025542 11 170 16.1 24.1 0.05 0.13 0.08 96 1018.8
20181216021542 11 221 11.3 17.7 0.00 0.08 0.05 95 1018.8
20181216014542 11 144 11.3 19.3 0.05 0.08 0.05 95 1019.8
20181216013542 11 165 11.3 25.7 0.05 0.08 0.05 95 1019.8
20181216011542 11 176 12.9 22.5 0.05 0.08 0.05 95 1019.8
20181216010541 11 170 12.9 17.7 0.05 0.08 0.05 95 1019.8
20181216005541 11 184 17.7 22.5 0.00 0.05 0.00 95 1019.8
20181216004541 11 195 12.9 16.1 0.00 0.05 0.00 94 1020.8
20181216003541 11 209 11.3 17.7 0.00 0.05 0.00 94 1020.8
20181216002541 11 172 11.3 19.3 0.00 0.05 0.00 94 1020.8
20181216001541 11 193 14.5 24.1 0.00 0.05 0.00 94 1020.8
20181216000541 11 172 8.0 14.5 0.00 0.05 0.00 94 1020.8
20181215235542 11 197 14.5 25.7 0.00 0.05 0.05 94 1020.8
20181215233541 11 170 16.1 24.1 0.00 0.05 0.05 94 1020.8
20181215231541 11 209 12.9 20.9 0.00 0.05 0.05 94 1020.8
20181215230541 11 173 16.1 16.1 0.00 0.05 0.05 94 1020.8
20181215224555 11 157 12.9 22.5 0.05 0.05 0.05 93 1020.8
20181215222555 11 173 14.5 17.7 0.05 0.05 0.05 93 1021.8
20181215215555 11 181 12.9 16.1 0.00 0.00 0.00 92 1021.8
20181215214555 11 169 12.9 12.9 0.00 0.00 0.00 91 1021.8
20181215213554 11 177 9.7 14.5 0.00 0.00 0.00 91 1021.8
20181215211554 11 165 14.5 16.1 0.00 0.00 0.00 90 1022.8
20181215203555 11 203 4.8 12.9 0.00 0.00 0.00 87 1022.8
20181215202554 12 155 11.3 17.7 0.00 0.00 0.00 85 1022.8
20181215201554 12 190 12.9 16.1 0.00 0.00 0.00 85 1022.8
20181215200554 12 154 4.8 11.3 0.00 0.00 0.00 84 1022.8
20181215194554 12 189 8.0 11.3 0.00 0.00 0.00 83 1022.8
20181215193554 12 163 8.0 12.9 0.00 0.00 0.00 83 1022.8
20181215192554 12 164 8.0 14.5 0.00 0.00 0.00 82 1022.8
20181215191554 12 193 11.3 16.1 0.00 0.00 0.00 82 1022.8
20181215183554 12 182 12.9 16.1 0.00 0.00 0.00 76 1022.8
20181215182554 12 150 12.9 16.1 0.00 0.00 0.00 75 1022.8
20181215181554 12 185 11.3 11.3 0.00 0.00 0.00 74 1022.8
20181215180554 12 181 8.0 14.5 0.00 0.00 0.00 74 1022.8
20181215175554 12 187 16.1 16.1 0.00 0.00 0.00 74 1022.8
20181215172629 12 164 12.9 16.1 0.00 0.00 0.00 73 1022.8
20181215171629 12 194 8.0 12.9 0.00 0.00 0.00 73 1022.8